sensor_id;sensor_type;location;lat;lon;timestamp;temperature;humidity
35804;DHT22;21924;51.934;7.414;2023-05-02T00:02:09;10.60;99.90
35804;DHT22;21924;51.934;7.414;2023-05-02T00:04:54;10.40;99.90
35804;DHT22;21924;51.934;7.414;2023-05-02T00:07:39;10.40;99.90
35804;DHT22;21924;51.934;7.414;2023-05-02T00:10:23;10.30;99.90
35804;DHT22;21924;51.934;7.414;2023-05-02T00:13:07;10.30;99.90
35804;DHT22;21924;51.934;7.414;2023-05-02T00:15:52;10.20;99.90
35804;DHT22;21924;51.934;7.414;2023-05-02T00:18:36;10.20;99.90
35804;DHT22;21924;51.934;7.414;2023-05-02T00:21:20;10.10;99.90
35804;DHT22;21924;51.934;7.414;2023-05-02T00:24:04;10.10;99.90
35804;DHT22;21924;51.934;7.414;2023-05-02T00:26:49;10.00;99.90
35804;DHT22;21924;51.934;7.414;2023-05-02T00:29:33;10.00;99.90
35804;DHT22;21924;51.934;7.414;2023-05-02T00:32:17;9.90;99.90
35804;DHT22;21924;51.934;7.414;2023-05-02T00:35:01;9.80;99.90
35804;DHT22;21924;51.934;7.414;2023-05-02T00:37:46;9.80;99.90
35804;DHT22;21924;51.934;7.414;2023-05-02T00:40:30;9.80;99.90
35804;DHT22;21924;51.934;7.414;2023-05-02T00:43:14;9.70;99.90
35804;DHT22;21924;51.934;7.414;2023-05-02T00:45:58;9.60;99.90
35804;DHT22;21924;51.934;7.414;2023-05-02T00:48:43;9.60;99.90
35804;DHT22;21924;51.934;7.414;2023-05-02T00:51:28;9.60;99.90
35804;DHT22;21924;51.934;7.414;2023-05-02T00:54:13;9.50;99.90
35804;DHT22;21924;51.934;7.414;2023-05-02T00:56:57;9.50;99.90
35804;DHT22;21924;51.934;7.414;2023-05-02T00:59:42;9.50;99.90
35804;DHT22;21924;51.934;7.414;2023-05-02T01:02:52;9.40;99.90
35804;DHT22;21924;51.934;7.414;2023-05-02T01:06:04;9.40;99.90
35804;DHT22;21924;51.934;7.414;2023-05-02T01:12:03;9.50;99.90
35804;DHT22;21924;51.934;7.414;2023-05-02T01:14:52;9.70;99.90
35804;DHT22;21924;51.934;7.414;2023-05-02T01:17:40;9.70;99.90
35804;DHT22;21924;51.934;7.414;2023-05-02T01:20:27;9.80;99.90
35804;DHT22;21924;51.934;7.414;2023-05-02T01:29:25;9.90;99.90
35804;DHT22;21924;51.934;7.414;2023-05-02T01:32:10;10.00;99.90
35804;DHT22;21924;51.934;7.414;2023-05-02T01:34:56;10.00;99.90
35804;DHT22;21924;51.934;7.414;2023-05-02T01:37:44;10.10;99.90
35804;DHT22;21924;51.934;7.414;2023-05-02T01:40:30;10.10;99.90
35804;DHT22;21924;51.934;7.414;2023-05-02T01:43:19;10.10;99.90
35804;DHT22;21924;51.934;7.414;2023-05-02T01:46:04;10.20;99.90
35804;DHT22;21924;51.934;7.414;2023-05-02T01:48:51;10.20;99.90
35804;DHT22;21924;51.934;7.414;2023-05-02T01:51:45;10.20;99.90
35804;DHT22;21924;51.934;7.414;2023-05-02T01:54:32;10.20;99.90
35804;DHT22;21924;51.934;7.414;2023-05-02T01:57:18;10.30;99.90
35804;DHT22;21924;51.934;7.414;2023-05-02T02:00:03;10.30;99.90
35804;DHT22;21924;51.934;7.414;2023-05-02T02:02:50;10.30;99.90
35804;DHT22;21924;51.934;7.414;2023-05-02T02:05:36;10.20;99.90
35804;DHT22;21924;51.934;7.414;2023-05-02T02:08:23;10.30;99.90
35804;DHT22;21924;51.934;7.414;2023-05-02T02:11:12;10.20;99.90
35804;DHT22;21924;51.934;7.414;2023-05-02T02:14:04;10.20;99.90
35804;DHT22;21924;51.934;7.414;2023-05-02T02:16:53;10.20;99.90
35804;DHT22;21924;51.934;7.414;2023-05-02T02:19:39;10.20;99.90
35804;DHT22;21924;51.934;7.414;2023-05-02T02:22:26;10.20;99.90
35804;DHT22;21924;51.934;7.414;2023-05-02T02:25:14;10.20;99.90
35804;DHT22;21924;51.934;7.414;2023-05-02T02:28:00;10.20;99.90
35804;DHT22;21924;51.934;7.414;2023-05-02T02:30:44;10.20;99.90
35804;DHT22;21924;51.934;7.414;2023-05-02T02:33:30;10.20;99.90
35804;DHT22;21924;51.934;7.414;2023-05-02T02:36:52;10.20;99.90
35804;DHT22;21924;51.934;7.414;2023-05-02T02:49:01;10.30;99.90
35804;DHT22;21924;51.934;7.414;2023-05-02T02:51:57;10.30;99.90
35804;DHT22;21924;51.934;7.414;2023-05-02T02:54:51;10.30;99.90
35804;DHT22;21924;51.934;7.414;2023-05-02T02:58:13;10.30;99.90
35804;DHT22;21924;51.934;7.414;2023-05-02T03:00:52;10.30;99.90
35804;DHT22;21924;51.934;7.414;2023-05-02T03:03:38;10.30;99.90
35804;DHT22;21924;51.934;7.414;2023-05-02T03:06:24;10.30;99.90
35804;DHT22;21924;51.934;7.414;2023-05-02T03:09:15;10.40;99.90
35804;DHT22;21924;51.934;7.414;2023-05-02T03:12:02;10.40;99.90
35804;DHT22;21924;51.934;7.414;2023-05-02T03:14:47;10.40;99.90
35804;DHT22;21924;51.934;7.414;2023-05-02T03:17:31;10.40;99.90
35804;DHT22;21924;51.934;7.414;2023-05-02T03:20:16;10.30;99.90
35804;DHT22;21924;51.934;7.414;2023-05-02T03:23:00;10.40;99.90
35804;DHT22;21924;51.934;7.414;2023-05-02T03:25:44;10.30;99.90
35804;DHT22;21924;51.934;7.414;2023-05-02T03:28:29;10.30;99.90
35804;DHT22;21924;51.934;7.414;2023-05-02T03:31:13;10.30;99.90
35804;DHT22;21924;51.934;7.414;2023-05-02T03:33:58;10.30;99.90
35804;DHT22;21924;51.934;7.414;2023-05-02T03:36:43;10.40;99.90
35804;DHT22;21924;51.934;7.414;2023-05-02T03:39:27;10.40;99.90
35804;DHT22;21924;51.934;7.414;2023-05-02T03:42:11;10.40;99.90
35804;DHT22;21924;51.934;7.414;2023-05-02T03:44:55;10.40;99.90
35804;DHT22;21924;51.934;7.414;2023-05-02T03:47:40;10.40;99.90
35804;DHT22;21924;51.934;7.414;2023-05-02T03:50:24;10.40;99.90
35804;DHT22;21924;51.934;7.414;2023-05-02T03:53:08;10.30;99.90
35804;DHT22;21924;51.934;7.414;2023-05-02T03:55:53;10.30;99.90
35804;DHT22;21924;51.934;7.414;2023-05-02T03:58:37;10.30;99.90
35804;DHT22;21924;51.934;7.414;2023-05-02T04:01:21;10.30;99.90
35804;DHT22;21924;51.934;7.414;2023-05-02T04:04:05;10.30;99.90
35804;DHT22;21924;51.934;7.414;2023-05-02T04:06:50;10.30;99.90
35804;DHT22;21924;51.934;7.414;2023-05-02T04:09:34;10.30;99.90
35804;DHT22;21924;51.934;7.414;2023-05-02T04:12:19;10.30;99.90
35804;DHT22;21924;51.934;7.414;2023-05-02T04:15:03;10.30;99.90
35804;DHT22;21924;51.934;7.414;2023-05-02T04:17:47;10.30;99.90
35804;DHT22;21924;51.934;7.414;2023-05-02T04:20:32;10.30;99.90
35804;DHT22;21924;51.934;7.414;2023-05-02T04:23:16;10.40;99.90
35804;DHT22;21924;51.934;7.414;2023-05-02T04:26:00;10.30;99.90
35804;DHT22;21924;51.934;7.414;2023-05-02T04:28:45;10.30;99.90
35804;DHT22;21924;51.934;7.414;2023-05-02T04:31:30;10.30;99.90
35804;DHT22;21924;51.934;7.414;2023-05-02T04:34:15;10.20;99.90
35804;DHT22;21924;51.934;7.414;2023-05-02T04:37:00;10.10;99.90
35804;DHT22;21924;51.934;7.414;2023-05-02T04:39:44;10.10;99.90
35804;DHT22;21924;51.934;7.414;2023-05-02T04:42:28;10.10;99.90
35804;DHT22;21924;51.934;7.414;2023-05-02T04:45:12;10.00;99.90
35804;DHT22;21924;51.934;7.414;2023-05-02T04:47:57;10.00;99.90
35804;DHT22;21924;51.934;7.414;2023-05-02T04:50:43;9.90;99.90
35804;DHT22;21924;51.934;7.414;2023-05-02T04:53:27;9.90;99.90
35804;DHT22;21924;51.934;7.414;2023-05-02T04:56:12;9.90;99.90
35804;DHT22;21924;51.934;7.414;2023-05-02T04:58:56;9.80;99.90
35804;DHT22;21924;51.934;7.414;2023-05-02T05:01:40;9.80;99.90
35804;DHT22;21924;51.934;7.414;2023-05-02T05:04:24;9.90;99.90
35804;DHT22;21924;51.934;7.414;2023-05-02T05:07:08;9.90;99.90
35804;DHT22;21924;51.934;7.414;2023-05-02T05:09:53;9.90;99.90
35804;DHT22;21924;51.934;7.414;2023-05-02T05:12:37;9.80;99.90
35804;DHT22;21924;51.934;7.414;2023-05-02T05:15:21;9.80;99.90
35804;DHT22;21924;51.934;7.414;2023-05-02T05:18:06;9.70;99.90
35804;DHT22;21924;51.934;7.414;2023-05-02T05:20:51;9.70;99.90
35804;DHT22;21924;51.934;7.414;2023-05-02T05:23:36;9.70;99.90
35804;DHT22;21924;51.934;7.414;2023-05-02T05:26:20;9.80;99.90
35804;DHT22;21924;51.934;7.414;2023-05-02T05:29:05;9.80;99.90
35804;DHT22;21924;51.934;7.414;2023-05-02T05:31:50;9.90;99.90
35804;DHT22;21924;51.934;7.414;2023-05-02T05:34:34;9.90;99.90
35804;DHT22;21924;51.934;7.414;2023-05-02T05:37:19;10.00;99.90
35804;DHT22;21924;51.934;7.414;2023-05-02T05:40:07;10.00;99.90
35804;DHT22;21924;51.934;7.414;2023-05-02T05:42:52;10.00;99.90
35804;DHT22;21924;51.934;7.414;2023-05-02T05:45:36;10.00;99.90
35804;DHT22;21924;51.934;7.414;2023-05-02T05:48:21;10.10;99.90
35804;DHT22;21924;51.934;7.414;2023-05-02T05:51:06;10.20;99.90
35804;DHT22;21924;51.934;7.414;2023-05-02T05:53:50;10.20;99.90
35804;DHT22;21924;51.934;7.414;2023-05-02T05:56:34;10.20;99.90
35804;DHT22;21924;51.934;7.414;2023-05-02T05:59:19;10.20;99.90
35804;DHT22;21924;51.934;7.414;2023-05-02T06:02:03;10.20;99.90
35804;DHT22;21924;51.934;7.414;2023-05-02T06:04:48;10.10;99.90
35804;DHT22;21924;51.934;7.414;2023-05-02T06:07:32;10.00;99.90
35804;DHT22;21924;51.934;7.414;2023-05-02T06:10:16;10.00;99.90
35804;DHT22;21924;51.934;7.414;2023-05-02T06:13:01;9.90;99.90
35804;DHT22;21924;51.934;7.414;2023-05-02T06:15:45;9.80;99.90
35804;DHT22;21924;51.934;7.414;2023-05-02T06:18:29;9.60;99.90
35804;DHT22;21924;51.934;7.414;2023-05-02T06:21:13;9.30;99.90
35804;DHT22;21924;51.934;7.414;2023-05-02T06:23:58;9.10;99.90
35804;DHT22;21924;51.934;7.414;2023-05-02T06:26:42;9.10;99.90
35804;DHT22;21924;51.934;7.414;2023-05-02T06:29:26;9.00;99.90
35804;DHT22;21924;51.934;7.414;2023-05-02T06:32:10;9.00;99.90
35804;DHT22;21924;51.934;7.414;2023-05-02T06:34:54;9.00;99.90
35804;DHT22;21924;51.934;7.414;2023-05-02T06:37:39;8.90;99.90
35804;DHT22;21924;51.934;7.414;2023-05-02T06:40:23;8.80;99.90
35804;DHT22;21924;51.934;7.414;2023-05-02T06:43:07;8.70;99.90
35804;DHT22;21924;51.934;7.414;2023-05-02T06:45:52;8.70;99.90
35804;DHT22;21924;51.934;7.414;2023-05-02T06:48:40;8.70;99.90
35804;DHT22;21924;51.934;7.414;2023-05-02T06:51:25;8.70;99.90
35804;DHT22;21924;51.934;7.414;2023-05-02T06:54:09;8.80;99.90
35804;DHT22;21924;51.934;7.414;2023-05-02T06:56:54;8.70;99.90
35804;DHT22;21924;51.934;7.414;2023-05-02T06:59:38;8.70;99.90
35804;DHT22;21924;51.934;7.414;2023-05-02T07:02:23;8.80;99.90
35804;DHT22;21924;51.934;7.414;2023-05-02T07:05:07;8.80;99.90
35804;DHT22;21924;51.934;7.414;2023-05-02T07:07:51;8.90;99.90
35804;DHT22;21924;51.934;7.414;2023-05-02T07:10:36;8.80;99.90
35804;DHT22;21924;51.934;7.414;2023-05-02T07:13:20;8.80;99.90
35804;DHT22;21924;51.934;7.414;2023-05-02T07:16:05;8.80;99.90
35804;DHT22;21924;51.934;7.414;2023-05-02T07:18:49;8.90;99.90
35804;DHT22;21924;51.934;7.414;2023-05-02T07:21:33;8.80;99.90
35804;DHT22;21924;51.934;7.414;2023-05-02T07:24:18;9.00;99.90
35804;DHT22;21924;51.934;7.414;2023-05-02T07:27:02;8.90;99.90
35804;DHT22;21924;51.934;7.414;2023-05-02T07:29:47;8.90;99.90
35804;DHT22;21924;51.934;7.414;2023-05-02T07:32:31;9.00;99.90
35804;DHT22;21924;51.934;7.414;2023-05-02T07:35:16;8.90;99.90
35804;DHT22;21924;51.934;7.414;2023-05-02T07:38:00;8.90;99.90
35804;DHT22;21924;51.934;7.414;2023-05-02T07:40:45;8.80;99.90
35804;DHT22;21924;51.934;7.414;2023-05-02T07:43:29;8.70;99.90
35804;DHT22;21924;51.934;7.414;2023-05-02T07:46:14;8.60;99.90
35804;DHT22;21924;51.934;7.414;2023-05-02T07:48:58;8.60;99.90
35804;DHT22;21924;51.934;7.414;2023-05-02T07:51:42;8.80;99.90
35804;DHT22;21924;51.934;7.414;2023-05-02T07:54:28;8.90;99.90
35804;DHT22;21924;51.934;7.414;2023-05-02T07:57:12;9.10;99.90
35804;DHT22;21924;51.934;7.414;2023-05-02T07:59:57;9.20;99.90
35804;DHT22;21924;51.934;7.414;2023-05-02T08:02:41;9.50;99.90
35804;DHT22;21924;51.934;7.414;2023-05-02T08:05:25;9.50;99.90
35804;DHT22;21924;51.934;7.414;2023-05-02T08:08:09;9.30;99.90
35804;DHT22;21924;51.934;7.414;2023-05-02T08:10:54;9.30;99.90
35804;DHT22;21924;51.934;7.414;2023-05-02T08:13:38;9.40;99.90
35804;DHT22;21924;51.934;7.414;2023-05-02T08:16:22;9.40;99.90
35804;DHT22;21924;51.934;7.414;2023-05-02T08:19:07;9.50;99.90
35804;DHT22;21924;51.934;7.414;2023-05-02T08:21:53;9.70;99.90
35804;DHT22;21924;51.934;7.414;2023-05-02T08:24:37;9.80;99.90
35804;DHT22;21924;51.934;7.414;2023-05-02T08:27:21;10.00;99.90
35804;DHT22;21924;51.934;7.414;2023-05-02T08:30:06;10.20;99.90
35804;DHT22;21924;51.934;7.414;2023-05-02T08:32:51;10.20;99.90
35804;DHT22;21924;51.934;7.414;2023-05-02T08:35:35;10.20;99.90
35804;DHT22;21924;51.934;7.414;2023-05-02T08:38:20;10.30;99.90
35804;DHT22;21924;51.934;7.414;2023-05-02T08:41:17;10.40;99.90
35804;DHT22;21924;51.934;7.414;2023-05-02T08:44:02;10.60;99.90
35804;DHT22;21924;51.934;7.414;2023-05-02T08:46:48;10.70;99.90
35804;DHT22;21924;51.934;7.414;2023-05-02T08:49:34;10.70;99.90
35804;DHT22;21924;51.934;7.414;2023-05-02T08:52:19;10.70;99.90
35804;DHT22;21924;51.934;7.414;2023-05-02T08:55:05;10.50;99.90
35804;DHT22;21924;51.934;7.414;2023-05-02T08:57:49;10.40;99.90
35804;DHT22;21924;51.934;7.414;2023-05-02T09:00:38;10.40;99.90
35804;DHT22;21924;51.934;7.414;2023-05-02T09:06:16;10.60;99.90
35804;DHT22;21924;51.934;7.414;2023-05-02T09:09:00;10.70;99.90
35804;DHT22;21924;51.934;7.414;2023-05-02T09:11:46;10.60;99.90
35804;DHT22;21924;51.934;7.414;2023-05-02T09:14:30;10.60;99.90
35804;DHT22;21924;51.934;7.414;2023-05-02T09:17:15;10.70;99.90
35804;DHT22;21924;51.934;7.414;2023-05-02T09:20:00;11.00;99.90
35804;DHT22;21924;51.934;7.414;2023-05-02T09:22:52;11.10;99.90
35804;DHT22;21924;51.934;7.414;2023-05-02T09:25:36;11.10;99.90
35804;DHT22;21924;51.934;7.414;2023-05-02T09:28:37;11.20;99.90
35804;DHT22;21924;51.934;7.414;2023-05-02T09:31:24;11.30;99.90
35804;DHT22;21924;51.934;7.414;2023-05-02T09:34:12;11.30;99.90
35804;DHT22;21924;51.934;7.414;2023-05-02T09:36:56;11.10;99.90
35804;DHT22;21924;51.934;7.414;2023-05-02T09:39:42;11.30;99.90
35804;DHT22;21924;51.934;7.414;2023-05-02T09:42:47;11.40;99.90
35804;DHT22;21924;51.934;7.414;2023-05-02T09:45:31;11.50;99.90
35804;DHT22;21924;51.934;7.414;2023-05-02T09:48:15;11.40;99.90
35804;DHT22;21924;51.934;7.414;2023-05-02T09:51:00;11.10;99.90
35804;DHT22;21924;51.934;7.414;2023-05-02T09:53:44;11.10;99.90
35804;DHT22;21924;51.934;7.414;2023-05-02T09:56:29;11.20;99.90
35804;DHT22;21924;51.934;7.414;2023-05-02T09:59:14;11.10;99.90
35804;DHT22;21924;51.934;7.414;2023-05-02T10:02:05;11.30;99.90
35804;DHT22;21924;51.934;7.414;2023-05-02T10:04:52;11.30;99.90
35804;DHT22;21924;51.934;7.414;2023-05-02T10:07:36;11.50;99.90
35804;DHT22;21924;51.934;7.414;2023-05-02T10:10:21;11.60;99.90
35804;DHT22;21924;51.934;7.414;2023-05-02T10:13:07;11.60;99.90
35804;DHT22;21924;51.934;7.414;2023-05-02T10:15:59;11.90;99.90
35804;DHT22;21924;51.934;7.414;2023-05-02T10:18:51;12.10;99.90
35804;DHT22;21924;51.934;7.414;2023-05-02T10:21:36;12.40;99.90
35804;DHT22;21924;51.934;7.414;2023-05-02T10:24:20;12.30;99.90
35804;DHT22;21924;51.934;7.414;2023-05-02T10:27:04;12.40;99.90
35804;DHT22;21924;51.934;7.414;2023-05-02T10:29:50;12.40;99.90
35804;DHT22;21924;51.934;7.414;2023-05-02T10:32:36;12.60;99.90
35804;DHT22;21924;51.934;7.414;2023-05-02T10:35:22;12.80;99.90
35804;DHT22;21924;51.934;7.414;2023-05-02T10:38:08;12.70;99.90
35804;DHT22;21924;51.934;7.414;2023-05-02T10:40:56;12.60;99.90
35804;DHT22;21924;51.934;7.414;2023-05-02T10:43:46;12.60;99.90
35804;DHT22;21924;51.934;7.414;2023-05-02T10:46:37;12.40;99.90
35804;DHT22;21924;51.934;7.414;2023-05-02T10:49:25;12.70;99.90
35804;DHT22;21924;51.934;7.414;2023-05-02T10:55:20;12.20;99.90
35804;DHT22;21924;51.934;7.414;2023-05-02T11:00:49;12.50;99.90
35804;DHT22;21924;51.934;7.414;2023-05-02T11:03:56;12.90;99.90
35804;DHT22;21924;51.934;7.414;2023-05-02T11:09:40;13.00;99.90
35804;DHT22;21924;51.934;7.414;2023-05-02T11:12:46;13.00;99.90
35804;DHT22;21924;51.934;7.414;2023-05-02T11:18:16;12.70;99.90
35804;DHT22;21924;51.934;7.414;2023-05-02T11:21:26;12.90;99.90
35804;DHT22;21924;51.934;7.414;2023-05-02T11:24:39;13.20;99.90
35804;DHT22;21924;51.934;7.414;2023-05-02T11:30:14;13.60;99.90
35804;DHT22;21924;51.934;7.414;2023-05-02T11:35:49;13.40;99.90
35804;DHT22;21924;51.934;7.414;2023-05-02T11:38:38;12.90;99.90
35804;DHT22;21924;51.934;7.414;2023-05-02T11:41:22;12.70;99.90
35804;DHT22;21924;51.934;7.414;2023-05-02T11:44:06;12.90;99.90
35804;DHT22;21924;51.934;7.414;2023-05-02T11:46:51;13.30;99.90
35804;DHT22;21924;51.934;7.414;2023-05-02T11:49:36;13.50;99.90
35804;DHT22;21924;51.934;7.414;2023-05-02T11:52:20;13.60;99.90
35804;DHT22;21924;51.934;7.414;2023-05-02T11:55:05;13.70;99.90
35804;DHT22;21924;51.934;7.414;2023-05-02T11:57:50;14.00;99.90
35804;DHT22;21924;51.934;7.414;2023-05-02T12:00:34;14.10;99.90
35804;DHT22;21924;51.934;7.414;2023-05-02T12:06:12;13.80;99.90
35804;DHT22;21924;51.934;7.414;2023-05-02T12:09:12;13.60;99.90
35804;DHT22;21924;51.934;7.414;2023-05-02T12:11:57;13.00;99.90
35804;DHT22;21924;51.934;7.414;2023-05-02T12:14:41;13.10;99.90
35804;DHT22;21924;51.934;7.414;2023-05-02T12:17:26;13.30;99.90
35804;DHT22;21924;51.934;7.414;2023-05-02T12:20:11;13.40;99.90
35804;DHT22;21924;51.934;7.414;2023-05-02T12:22:55;13.50;99.90
35804;DHT22;21924;51.934;7.414;2023-05-02T12:25:41;13.40;99.90
35804;DHT22;21924;51.934;7.414;2023-05-02T12:28:25;13.10;99.90
35804;DHT22;21924;51.934;7.414;2023-05-02T12:31:10;13.00;99.90
35804;DHT22;21924;51.934;7.414;2023-05-02T12:33:54;13.50;99.90
35804;DHT22;21924;51.934;7.414;2023-05-02T12:36:43;13.80;99.90
35804;DHT22;21924;51.934;7.414;2023-05-02T12:42:20;13.90;99.90
35804;DHT22;21924;51.934;7.414;2023-05-02T12:45:15;13.60;99.90
35804;DHT22;21924;51.934;7.414;2023-05-02T12:48:18;13.90;99.90
35804;DHT22;21924;51.934;7.414;2023-05-02T12:51:03;14.40;99.90
35804;DHT22;21924;51.934;7.414;2023-05-02T12:53:48;14.70;99.90
35804;DHT22;21924;51.934;7.414;2023-05-02T12:56:41;14.20;99.90
35804;DHT22;21924;51.934;7.414;2023-05-02T12:59:28;14.00;99.90
35804;DHT22;21924;51.934;7.414;2023-05-02T13:02:12;14.30;99.90
35804;DHT22;21924;51.934;7.414;2023-05-02T13:04:57;14.70;99.90
35804;DHT22;21924;51.934;7.414;2023-05-02T13:07:41;14.90;99.90
35804;DHT22;21924;51.934;7.414;2023-05-02T13:10:26;14.50;99.90
35804;DHT22;21924;51.934;7.414;2023-05-02T13:13:10;13.60;99.90
35804;DHT22;21924;51.934;7.414;2023-05-02T13:15:55;13.80;99.90
35804;DHT22;21924;51.934;7.414;2023-05-02T13:18:39;14.30;99.90
35804;DHT22;21924;51.934;7.414;2023-05-02T13:21:23;14.50;99.90
35804;DHT22;21924;51.934;7.414;2023-05-02T13:24:07;14.70;99.90
35804;DHT22;21924;51.934;7.414;2023-05-02T13:26:51;15.30;99.90
35804;DHT22;21924;51.934;7.414;2023-05-02T13:29:36;15.70;99.90
35804;DHT22;21924;51.934;7.414;2023-05-02T13:32:20;16.40;99.90
35804;DHT22;21924;51.934;7.414;2023-05-02T13:35:05;16.60;99.90
35804;DHT22;21924;51.934;7.414;2023-05-02T13:37:50;15.40;99.90
35804;DHT22;21924;51.934;7.414;2023-05-02T13:40:34;14.40;99.90
35804;DHT22;21924;51.934;7.414;2023-05-02T13:43:19;14.80;99.90
35804;DHT22;21924;51.934;7.414;2023-05-02T13:46:03;15.70;99.90
35804;DHT22;21924;51.934;7.414;2023-05-02T13:48:47;16.50;99.90
35804;DHT22;21924;51.934;7.414;2023-05-02T13:51:32;16.50;99.90
35804;DHT22;21924;51.934;7.414;2023-05-02T13:54:16;16.80;99.90
35804;DHT22;21924;51.934;7.414;2023-05-02T13:57:00;17.30;99.90
35804;DHT22;21924;51.934;7.414;2023-05-02T13:59:45;17.10;99.90
35804;DHT22;21924;51.934;7.414;2023-05-02T14:02:29;17.40;99.90
35804;DHT22;21924;51.934;7.414;2023-05-02T14:05:13;18.10;99.90
35804;DHT22;21924;51.934;7.414;2023-05-02T14:07:58;17.90;99.90
35804;DHT22;21924;51.934;7.414;2023-05-02T14:10:42;17.40;99.90
35804;DHT22;21924;51.934;7.414;2023-05-02T14:13:27;16.10;99.90
35804;DHT22;21924;51.934;7.414;2023-05-02T14:16:11;15.40;99.90
35804;DHT22;21924;51.934;7.414;2023-05-02T14:18:55;15.70;99.90
35804;DHT22;21924;51.934;7.414;2023-05-02T14:21:40;15.50;99.90
35804;DHT22;21924;51.934;7.414;2023-05-02T14:24:24;15.60;99.90
35804;DHT22;21924;51.934;7.414;2023-05-02T14:27:08;16.60;99.90
35804;DHT22;21924;51.934;7.414;2023-05-02T14:30:00;18.00;99.90
35804;DHT22;21924;51.934;7.414;2023-05-02T14:32:45;19.00;98.60
35804;DHT22;21924;51.934;7.414;2023-05-02T14:35:29;19.60;99.00
35804;DHT22;21924;51.934;7.414;2023-05-02T14:38:14;19.60;98.60
35804;DHT22;21924;51.934;7.414;2023-05-02T14:40:58;19.00;98.40
35804;DHT22;21924;51.934;7.414;2023-05-02T14:43:43;17.30;97.60
35804;DHT22;21924;51.934;7.414;2023-05-02T14:46:27;15.80;98.80
35804;DHT22;21924;51.934;7.414;2023-05-02T14:49:12;15.10;99.90
35804;DHT22;21924;51.934;7.414;2023-05-02T14:51:56;14.50;99.90
35804;DHT22;21924;51.934;7.414;2023-05-02T14:54:40;15.00;99.90
35804;DHT22;21924;51.934;7.414;2023-05-02T14:57:24;16.30;99.90
35804;DHT22;21924;51.934;7.414;2023-05-02T15:00:09;17.00;99.50
35804;DHT22;21924;51.934;7.414;2023-05-02T15:02:53;16.50;99.50
35804;DHT22;21924;51.934;7.414;2023-05-02T15:05:38;15.30;99.90
35804;DHT22;21924;51.934;7.414;2023-05-02T15:08:22;14.40;99.90
35804;DHT22;21924;51.934;7.414;2023-05-02T15:11:10;14.10;99.90
35804;DHT22;21924;51.934;7.414;2023-05-02T15:13:54;15.10;99.90
35804;DHT22;21924;51.934;7.414;2023-05-02T15:16:38;15.50;99.90
35804;DHT22;21924;51.934;7.414;2023-05-02T15:19:22;15.90;99.90
35804;DHT22;21924;51.934;7.414;2023-05-02T15:22:07;15.70;99.90
35804;DHT22;21924;51.934;7.414;2023-05-02T15:24:52;15.80;99.90
35804;DHT22;21924;51.934;7.414;2023-05-02T15:27:36;15.60;99.90
35804;DHT22;21924;51.934;7.414;2023-05-02T15:30:20;15.80;99.90
35804;DHT22;21924;51.934;7.414;2023-05-02T15:33:04;15.90;99.60
35804;DHT22;21924;51.934;7.414;2023-05-02T15:35:53;15.50;99.90
35804;DHT22;21924;51.934;7.414;2023-05-02T15:38:38;15.20;99.90
35804;DHT22;21924;51.934;7.414;2023-05-02T15:41:25;15.00;99.90
35804;DHT22;21924;51.934;7.414;2023-05-02T15:44:10;14.60;99.90
35804;DHT22;21924;51.934;7.414;2023-05-02T15:46:55;14.40;99.90
35804;DHT22;21924;51.934;7.414;2023-05-02T15:49:39;14.20;99.90
35804;DHT22;21924;51.934;7.414;2023-05-02T15:52:23;14.20;99.90
35804;DHT22;21924;51.934;7.414;2023-05-02T15:55:08;14.10;99.90
35804;DHT22;21924;51.934;7.414;2023-05-02T15:57:52;13.90;99.90
35804;DHT22;21924;51.934;7.414;2023-05-02T16:00:37;13.70;99.90
35804;DHT22;21924;51.934;7.414;2023-05-02T16:03:21;13.50;99.90
35804;DHT22;21924;51.934;7.414;2023-05-02T16:06:05;13.20;99.90
35804;DHT22;21924;51.934;7.414;2023-05-02T16:08:50;13.10;99.90
35804;DHT22;21924;51.934;7.414;2023-05-02T16:11:34;13.00;99.90
35804;DHT22;21924;51.934;7.414;2023-05-02T16:14:19;13.00;99.90
35804;DHT22;21924;51.934;7.414;2023-05-02T16:17:06;13.00;99.90
35804;DHT22;21924;51.934;7.414;2023-05-02T16:19:51;12.70;99.90
35804;DHT22;21924;51.934;7.414;2023-05-02T16:22:35;12.50;99.90
35804;DHT22;21924;51.934;7.414;2023-05-02T16:25:20;12.40;99.90
35804;DHT22;21924;51.934;7.414;2023-05-02T16:28:04;12.30;99.90
35804;DHT22;21924;51.934;7.414;2023-05-02T16:30:49;12.30;99.90
35804;DHT22;21924;51.934;7.414;2023-05-02T16:33:33;12.20;99.90
35804;DHT22;21924;51.934;7.414;2023-05-02T16:36:18;12.10;99.90
35804;DHT22;21924;51.934;7.414;2023-05-02T16:39:02;12.10;99.90
35804;DHT22;21924;51.934;7.414;2023-05-02T16:41:46;12.00;99.90
35804;DHT22;21924;51.934;7.414;2023-05-02T16:44:32;12.10;99.90
35804;DHT22;21924;51.934;7.414;2023-05-02T16:47:16;12.10;99.90
35804;DHT22;21924;51.934;7.414;2023-05-02T16:50:01;12.10;99.90
35804;DHT22;21924;51.934;7.414;2023-05-02T16:52:45;12.10;99.90
35804;DHT22;21924;51.934;7.414;2023-05-02T16:55:29;12.10;99.90
35804;DHT22;21924;51.934;7.414;2023-05-02T16:58:14;12.10;99.90
35804;DHT22;21924;51.934;7.414;2023-05-02T17:00:58;12.20;99.90
35804;DHT22;21924;51.934;7.414;2023-05-02T17:03:43;12.70;99.90
35804;DHT22;21924;51.934;7.414;2023-05-02T17:06:27;12.80;99.90
35804;DHT22;21924;51.934;7.414;2023-05-02T17:09:12;12.80;99.90
35804;DHT22;21924;51.934;7.414;2023-05-02T17:11:56;12.70;99.90
35804;DHT22;21924;51.934;7.414;2023-05-02T17:14:41;12.60;99.90
35804;DHT22;21924;51.934;7.414;2023-05-02T17:17:26;12.70;99.90
35804;DHT22;21924;51.934;7.414;2023-05-02T17:20:10;12.50;99.90
35804;DHT22;21924;51.934;7.414;2023-05-02T17:22:56;12.30;99.90
35804;DHT22;21924;51.934;7.414;2023-05-02T17:25:40;12.00;99.90
35804;DHT22;21924;51.934;7.414;2023-05-02T17:28:25;11.90;99.90
35804;DHT22;21924;51.934;7.414;2023-05-02T17:31:10;11.70;99.90
35804;DHT22;21924;51.934;7.414;2023-05-02T17:33:54;11.60;99.90
35804;DHT22;21924;51.934;7.414;2023-05-02T17:36:39;11.50;99.90
35804;DHT22;21924;51.934;7.414;2023-05-02T17:39:25;11.40;99.90
35804;DHT22;21924;51.934;7.414;2023-05-02T17:42:09;11.30;99.90
35804;DHT22;21924;51.934;7.414;2023-05-02T17:44:54;11.20;99.90
35804;DHT22;21924;51.934;7.414;2023-05-02T17:47:38;11.10;99.90
35804;DHT22;21924;51.934;7.414;2023-05-02T17:50:22;11.10;99.90
35804;DHT22;21924;51.934;7.414;2023-05-02T17:53:07;10.90;99.90
35804;DHT22;21924;51.934;7.414;2023-05-02T17:55:51;10.90;99.90
35804;DHT22;21924;51.934;7.414;2023-05-02T17:58:35;10.80;99.90
35804;DHT22;21924;51.934;7.414;2023-05-02T18:01:20;10.70;99.90
35804;DHT22;21924;51.934;7.414;2023-05-02T18:04:04;10.70;99.90
35804;DHT22;21924;51.934;7.414;2023-05-02T18:06:49;10.60;99.90
35804;DHT22;21924;51.934;7.414;2023-05-02T18:09:33;10.60;99.90
35804;DHT22;21924;51.934;7.414;2023-05-02T18:12:18;10.50;99.90
35804;DHT22;21924;51.934;7.414;2023-05-02T18:15:03;10.50;99.90
35804;DHT22;21924;51.934;7.414;2023-05-02T18:17:48;10.50;99.90